Time;durP1;ratioP1;P1;durP2;ratioP2;P2;SDS_P1;SDS_P2;PMS_P1;PMS_P2;Temp;Humidity;BMP_temperature;BMP_pressure;BME280_temperature;BME280_humidity;BME280_pressure;Samples;Min_cycle;Max_cycle;Signal;HPM_P1;HPM_P2
2022/01/06 00:00:59;;;;;;;6.13;2.33;;;;;;;;;;5130195;27;20449;-72
2022/01/06 00:03:27;;;;;;;5.37;1.97;;;;;;;;;;5138945;27;20462;-72
2022/01/06 00:05:56;;;;;;;7.37;2.83;;;;;;;;;;5138633;27;20470;-73
2022/01/06 00:08:25;;;;;;;6.13;1.93;;;;;;;;;;5134583;27;20455;-72
2022/01/06 00:10:53;;;;;;;2.67;2.07;;;;;;;;;;5131148;27;20484;-73
2022/01/06 00:13:26;;;;;;;7.20;2.00;;;;;;;;;;5133978;27;20450;-72
2022/01/06 00:16:06;;;;;;;4.77;1.87;;;;;;;;;;5135161;27;20469;-73
2022/01/06 00:24:06;;;;;;;7.80;2.37;;;;;;;;;;5130430;27;20450;-73
2022/01/06 00:26:34;;;;;;;6.27;2.17;;;;;;;;;;5139603;27;21050;-74
2022/01/06 00:29:02;;;;;;;4.67;2.10;;;;;;;;;;5136490;27;20456;-76
2022/01/06 00:31:30;;;;;;;7.33;2.23;;;;;;;;;;5133490;27;20478;-72
2022/01/06 00:33:58;;;;;;;5.73;2.00;;;;;;;;;;5132206;27;20448;-72
2022/01/06 00:36:26;;;;;;;3.40;2.60;;;;;;;;;;5122823;27;20858;-72
2022/01/06 00:38:54;;;;;;;4.53;2.20;;;;;;;;;;5138647;27;20449;-72
2022/01/06 00:41:23;;;;;;;5.47;2.20;;;;;;;;;;5137991;27;20527;-74
2022/01/06 00:43:51;;;;;;;5.80;1.93;;;;;;;;;;5130089;27;20826;-72
2022/01/06 00:46:19;;;;;;;2.70;2.10;;;;;;;;;;5138378;27;20513;-72
2022/01/06 00:48:48;;;;;;;5.43;2.30;;;;;;;;;;5134423;27;21537;-71
2022/01/06 00:51:16;;;;;;;5.63;1.90;;;;;;;;;;5133762;27;20477;-72
2022/01/06 00:53:44;;;;;;;6.43;2.60;;;;;;;;;;5137697;27;20454;-72
2022/01/06 00:56:12;;;;;;;6.07;2.50;;;;;;;;;;5136032;27;20470;-72
2022/01/06 00:58:42;;;;;;;9.10;2.37;;;;;;;;;;5129170;27;20453;-72
2022/01/06 01:01:10;;;;;;;9.40;2.77;;;;;;;;;;5121587;27;20960;-74
2022/01/06 01:03:38;;;;;;;5.37;1.93;;;;;;;;;;5134380;27;20450;-72
2022/01/06 01:06:06;;;;;;;6.03;2.17;;;;;;;;;;5133511;27;20487;-72
2022/01/06 01:08:34;;;;;;;5.07;3.13;;;;;;;;;;5133802;27;20453;-73
2022/01/06 01:11:02;;;;;;;6.63;2.83;;;;;;;;;;5136108;27;20473;-74
2022/01/06 01:13:32;;;;;;;4.40;1.70;;;;;;;;;;5135891;27;20457;-73
2022/01/06 01:16:10;;;;;;;7.03;2.67;;;;;;;;;;5136436;27;20478;-73
2022/01/06 01:18:44;;;;;;;7.47;2.07;;;;;;;;;;5137117;27;20537;-73
2022/01/06 01:21:12;;;;;;;7.30;2.40;;;;;;;;;;5134183;27;20481;-74
2022/01/06 01:23:40;;;;;;;3.83;1.90;;;;;;;;;;5133640;27;20450;-73
2022/01/06 01:26:08;;;;;;;7.10;2.43;;;;;;;;;;5131911;27;21067;-73
2022/01/06 01:28:43;;;;;;;7.30;2.17;;;;;;;;;;5137955;27;20460;-73
2022/01/06 01:31:24;;;;;;;2.97;2.00;;;;;;;;;;5132113;27;20564;-73
2022/01/06 01:33:56;;;;;;;9.57;2.10;;;;;;;;;;5137508;27;20449;-74
2022/01/06 01:36:24;;;;;;;9.20;2.53;;;;;;;;;;5136983;27;20502;-73
2022/01/06 01:38:52;;;;;;;4.30;1.97;;;;;;;;;;5136507;27;20460;-73
2022/01/06 01:41:20;;;;;;;5.93;2.33;;;;;;;;;;5136210;27;20975;-74
2022/01/06 01:43:48;;;;;;;2.00;1.67;;;;;;;;;;5134163;27;20450;-74
2022/01/06 01:46:20;;;;;;;5.30;1.83;;;;;;;;;;5134694;27;20481;-74
2022/01/06 01:49:06;;;;;;;4.50;2.00;;;;;;;;;;5136163;27;20558;-74
2022/01/06 01:51:34;;;;;;;3.80;1.50;;;;;;;;;;5132471;27;20482;-74
2022/01/06 01:54:02;;;;;;;6.37;2.00;;;;;;;;;;5134584;27;20446;-74
2022/01/06 01:56:30;;;;;;;4.53;2.03;;;;;;;;;;5134953;27;20469;-74
2022/01/06 01:58:58;;;;;;;5.53;2.13;;;;;;;;;;5134878;27;20811;-73
2022/01/06 02:01:28;;;;;;;3.27;1.53;;;;;;;;;;5138337;27;20448;-74
2022/01/06 02:03:56;;;;;;;9.17;3.03;;;;;;;;;;5135069;27;20874;-73
2022/01/06 02:06:24;;;;;;;10.73;2.20;;;;;;;;;;5136632;27;20470;-73
2022/01/06 02:08:54;;;;;;;3.40;2.23;;;;;;;;;;5136228;28;20812;-74
2022/01/06 02:11:22;;;;;;;4.57;2.53;;;;;;;;;;5136761;28;20846;-72
2022/01/06 02:13:51;;;;;;;10.77;2.73;;;;;;;;;;5138487;27;20452;-74
2022/01/06 02:16:20;;;;;;;5.77;2.07;;;;;;;;;;5144981;27;20477;-74
2022/01/06 02:18:50;;;;;;;5.43;2.20;;;;;;;;;;5137487;27;20488;-74
2022/01/06 02:21:20;;;;;;;8.43;2.40;;;;;;;;;;5141480;27;20480;-74
2022/01/06 02:23:48;;;;;;;3.67;1.87;;;;;;;;;;5138665;27;20445;-74
2022/01/06 02:26:19;;;;;;;6.30;2.70;;;;;;;;;;5136253;27;20497;-74
2022/01/06 02:28:47;;;;;;;4.90;2.47;;;;;;;;;;5126131;28;20456;-74
2022/01/06 02:31:15;;;;;;;6.07;2.13;;;;;;;;;;5128696;28;20814;-74
2022/01/06 02:33:43;;;;;;;9.83;1.83;;;;;;;;;;5126551;28;20481;-74
2022/01/06 02:36:11;;;;;;;9.23;2.27;;;;;;;;;;5125751;28;20491;-74
2022/01/06 02:38:41;;;;;;;6.13;2.20;;;;;;;;;;5126969;28;20872;-73
2022/01/06 02:41:09;;;;;;;1.93;1.83;;;;;;;;;;5125060;28;20523;-74
2022/01/06 02:43:37;;;;;;;6.70;2.07;;;;;;;;;;5125461;28;20812;-74
2022/01/06 02:46:05;;;;;;;9.73;2.53;;;;;;;;;;5125630;28;20473;-74
2022/01/06 02:48:33;;;;;;;8.27;2.73;;;;;;;;;;5127825;28;20932;-73
2022/01/06 02:51:01;;;;;;;5.03;2.13;;;;;;;;;;5129017;28;20455;-73
2022/01/06 02:53:29;;;;;;;7.17;2.13;;;;;;;;;;5127038;28;20478;-74
2022/01/06 02:56:00;;;;;;;5.27;2.23;;;;;;;;;;5132195;28;20549;-74
2022/01/06 02:58:43;;;;;;;3.47;2.40;;;;;;;;;;5129602;28;20451;-73
2022/01/06 03:01:11;;;;;;;6.47;2.83;;;;;;;;;;5134161;27;20453;-73
2022/01/06 03:03:39;;;;;;;8.47;2.47;;;;;;;;;;5134736;28;20452;-73
2022/01/06 03:06:07;;;;;;;7.00;1.93;;;;;;;;;;5130283;27;20480;-73
2022/01/06 03:08:37;;;;;;;6.57;1.97;;;;;;;;;;5131904;27;20454;-73
2022/01/06 03:11:08;;;;;;;8.37;2.33;;;;;;;;;;5133345;27;20538;-73
2022/01/06 03:13:36;;;;;;;8.70;2.20;;;;;;;;;;5139701;27;20513;-73
2022/01/06 03:16:04;;;;;;;8.63;2.43;;;;;;;;;;5140297;27;21007;-73
2022/01/06 03:18:32;;;;;;;7.07;2.43;;;;;;;;;;5136915;27;20466;-73
2022/01/06 03:21:00;;;;;;;7.43;1.70;;;;;;;;;;5139080;27;20985;-73
2022/01/06 03:23:28;;;;;;;4.33;2.80;;;;;;;;;;5132924;27;20452;-73
2022/01/06 03:25:56;;;;;;;8.23;2.33;;;;;;;;;;5139830;27;20558;-73
2022/01/06 03:28:26;;;;;;;5.97;2.33;;;;;;;;;;5132091;27;20475;-73
2022/01/06 03:30:53;;;;;;;6.70;2.03;;;;;;;;;;5139951;27;20460;-73
2022/01/06 03:33:22;;;;;;;4.90;2.00;;;;;;;;;;5139443;27;20509;-72
2022/01/06 03:35:50;;;;;;;8.50;1.80;;;;;;;;;;5135277;27;20475;-73
2022/01/06 03:38:18;;;;;;;4.97;1.77;;;;;;;;;;5139732;27;20457;-73
2022/01/06 03:40:46;;;;;;;8.33;2.67;;;;;;;;;;5136566;27;20468;-73
2022/01/06 03:43:14;;;;;;;4.93;1.60;;;;;;;;;;5134875;27;20457;-73
2022/01/06 03:45:43;;;;;;;9.43;2.47;;;;;;;;;;5138862;27;20514;-73
2022/01/06 03:48:11;;;;;;;3.70;2.00;;;;;;;;;;5139050;27;20481;-73
2022/01/06 03:50:39;;;;;;;5.87;3.00;;;;;;;;;;5134010;27;20454;-73
2022/01/06 03:53:07;;;;;;;11.23;3.00;;;;;;;;;;5138433;27;20469;-73
2022/01/06 03:55:37;;;;;;;11.57;2.57;;;;;;;;;;5130600;27;20456;-73
2022/01/06 03:58:05;;;;;;;5.97;2.37;;;;;;;;;;5135684;27;20455;-73
2022/01/06 04:00:33;;;;;;;7.83;2.80;;;;;;;;;;5136930;27;20491;-73
2022/01/06 04:03:03;;;;;;;6.77;2.73;;;;;;;;;;5138693;27;20827;-73
2022/01/06 04:05:33;;;;;;;5.20;1.80;;;;;;;;;;5130886;27;20818;-73
2022/01/06 04:08:01;;;;;;;6.90;1.70;;;;;;;;;;5138983;27;20454;-73
2022/01/06 04:10:29;;;;;;;4.60;2.00;;;;;;;;;;5139140;27;20553;-73
2022/01/06 04:12:57;;;;;;;9.20;3.73;;;;;;;;;;5137731;27;20485;-74
2022/01/06 04:15:26;;;;;;;7.33;2.23;;;;;;;;;;5133359;27;20451;-73
2022/01/06 04:17:54;;;;;;;3.83;2.00;;;;;;;;;;5135641;27;20533;-73
2022/01/06 04:20:24;;;;;;;7.17;2.20;;;;;;;;;;5135632;27;20446;-73
2022/01/06 04:22:52;;;;;;;8.97;2.17;;;;;;;;;;5129620;27;20460;-73
2022/01/06 04:25:20;;;;;;;8.13;2.53;;;;;;;;;;5138313;27;20456;-73
2022/01/06 04:27:48;;;;;;;4.83;2.03;;;;;;;;;;5138873;27;21018;-73
2022/01/06 04:30:16;;;;;;;4.00;1.80;;;;;;;;;;5138603;27;20852;-73
2022/01/06 04:32:44;;;;;;;5.07;2.60;;;;;;;;;;5131228;27;20474;-73
2022/01/06 04:35:11;;;;;;;4.03;2.27;;;;;;;;;;5132084;27;20464;-73
2022/01/06 04:37:41;;;;;;;5.33;1.93;;;;;;;;;;5138767;27;20979;-73
2022/01/06 04:40:09;;;;;;;7.57;3.17;;;;;;;;;;5129669;27;20457;-73
2022/01/06 04:42:37;;;;;;;7.57;2.43;;;;;;;;;;5138454;27;20460;-73
2022/01/06 04:45:06;;;;;;;5.97;2.47;;;;;;;;;;5137124;27;20479;-73
2022/01/06 04:47:34;;;;;;;6.53;2.30;;;;;;;;;;5131223;27;20476;-73
2022/01/06 04:50:02;;;;;;;12.10;2.47;;;;;;;;;;5137643;27;20450;-73
2022/01/06 04:52:30;;;;;;;5.13;2.73;;;;;;;;;;5134470;27;20487;-73
2022/01/06 04:54:59;;;;;;;6.40;2.07;;;;;;;;;;5129537;27;20454;-73
2022/01/06 04:57:27;;;;;;;7.07;2.47;;;;;;;;;;5137579;27;20477;-73
2022/01/06 04:59:55;;;;;;;5.40;2.47;;;;;;;;;;5138031;27;20449;-73
2022/01/06 05:02:27;;;;;;;6.50;2.73;;;;;;;;;;5137371;27;20535;-73
2022/01/06 05:04:55;;;;;;;3.77;2.37;;;;;;;;;;5138115;27;20446;-73
2022/01/06 05:07:23;;;;;;;8.33;2.60;;;;;;;;;;5131149;27;20478;-73
2022/01/06 05:09:51;;;;;;;2.77;1.70;;;;;;;;;;5137051;27;20457;-73
2022/01/06 05:12:22;;;;;;;6.70;3.00;;;;;;;;;;5129164;27;20458;-73
2022/01/06 05:14:49;;;;;;;7.80;1.87;;;;;;;;;;5137672;27;20479;-73
2022/01/06 05:17:19;;;;;;;7.00;2.40;;;;;;;;;;5135961;27;21030;-73
2022/01/06 05:19:47;;;;;;;7.00;2.47;;;;;;;;;;5128919;27;20913;-73
2022/01/06 05:22:15;;;;;;;5.63;1.57;;;;;;;;;;5125791;27;20459;-73
2022/01/06 05:24:42;;;;;;;4.23;2.07;;;;;;;;;;5134623;27;20806;-73
2022/01/06 05:27:10;;;;;;;4.30;1.67;;;;;;;;;;5137412;27;20477;-73
2022/01/06 05:29:40;;;;;;;7.40;2.23;;;;;;;;;;5131033;27;20545;-73
2022/01/06 05:32:08;;;;;;;8.40;2.00;;;;;;;;;;5137660;27;20461;-73
2022/01/06 05:34:36;;;;;;;8.30;2.23;;;;;;;;;;5128490;27;21837;-73
2022/01/06 05:37:05;;;;;;;6.73;2.13;;;;;;;;;;5133727;27;20477;-74
2022/01/06 05:39:33;;;;;;;4.47;2.20;;;;;;;;;;5129130;27;20475;-74
2022/01/06 05:42:01;;;;;;;8.00;2.00;;;;;;;;;;5136322;27;20450;-74
2022/01/06 05:44:32;;;;;;;7.67;2.33;;;;;;;;;;5134414;27;20506;-73
2022/01/06 05:47:03;;;;;;;9.03;2.67;;;;;;;;;;5130680;27;20476;-73
2022/01/06 05:49:33;;;;;;;4.80;2.57;;;;;;;;;;5133714;27;20490;-73
2022/01/06 05:52:01;;;;;;;6.83;2.03;;;;;;;;;;5135444;27;20460;-73
2022/01/06 05:54:29;;;;;;;5.50;2.37;;;;;;;;;;5134622;27;20836;-74
2022/01/06 05:56:56;;;;;;;5.00;2.20;;;;;;;;;;5136095;27;20466;-73
2022/01/06 05:59:24;;;;;;;4.80;1.90;;;;;;;;;;5136894;27;20949;-74
2022/01/06 06:01:52;;;;;;;5.83;2.03;;;;;;;;;;5132349;27;20449;-73
2022/01/06 06:04:22;;;;;;;10.07;2.50;;;;;;;;;;5136183;27;20971;-73
2022/01/06 06:06:50;;;;;;;5.60;2.37;;;;;;;;;;5135553;27;20480;-73
2022/01/06 06:09:18;;;;;;;4.90;1.53;;;;;;;;;;5134468;27;20450;-73
2022/01/06 06:11:46;;;;;;;7.17;2.80;;;;;;;;;;5128735;27;20536;-72
2022/01/06 06:14:14;;;;;;;3.87;1.87;;;;;;;;;;5139126;27;21003;-72
2022/01/06 06:16:42;;;;;;;4.50;2.10;;;;;;;;;;5130575;28;20469;-72
2022/01/06 06:19:10;;;;;;;6.93;1.90;;;;;;;;;;5130649;28;20478;-72
2022/01/06 06:21:40;;;;;;;2.53;2.10;;;;;;;;;;5129801;28;20540;-72
2022/01/06 06:24:08;;;;;;;4.93;1.67;;;;;;;;;;5122400;28;20449;-71
2022/01/06 06:26:36;;;;;;;6.50;1.70;;;;;;;;;;5136341;28;20474;-72
2022/01/06 06:29:04;;;;;;;2.33;1.57;;;;;;;;;;5135977;28;20463;-70
2022/01/06 06:31:32;;;;;;;3.17;1.73;;;;;;;;;;5131635;28;20458;-71
2022/01/06 06:34:00;;;;;;;6.17;2.83;;;;;;;;;;5134733;28;20509;-70
2022/01/06 06:36:28;;;;;;;4.53;2.17;;;;;;;;;;5128690;28;21057;-71
2022/01/06 06:38:57;;;;;;;8.73;2.30;;;;;;;;;;5139311;27;20453;-72
2022/01/06 06:41:25;;;;;;;4.47;1.93;;;;;;;;;;5129950;27;20461;-71
2022/01/06 06:43:53;;;;;;;4.77;2.57;;;;;;;;;;5139518;27;20464;-70
2022/01/06 06:46:21;;;;;;;6.67;1.60;;;;;;;;;;5140630;27;20503;-70
2022/01/06 06:48:49;;;;;;;6.37;2.10;;;;;;;;;;5139246;27;20569;-71
2022/01/06 06:51:17;;;;;;;5.17;1.60;;;;;;;;;;5135392;27;20453;-70
2022/01/06 06:53:45;;;;;;;6.57;1.70;;;;;;;;;;5127516;27;20454;-70
2022/01/06 06:56:15;;;;;;;4.43;2.00;;;;;;;;;;5139591;27;20473;-71
2022/01/06 06:58:43;;;;;;;2.53;2.00;;;;;;;;;;5140573;27;20458;-70
2022/01/06 07:01:11;;;;;;;5.50;2.20;;;;;;;;;;5138835;27;21121;-70
2022/01/06 07:03:39;;;;;;;3.43;2.13;;;;;;;;;;5139237;27;20457;-72
2022/01/06 07:06:07;;;;;;;2.77;1.90;;;;;;;;;;5131833;27;20474;-71
2022/01/06 07:08:36;;;;;;;3.47;1.60;;;;;;;;;;5134114;27;20450;-71
2022/01/06 07:11:04;;;;;;;5.70;2.00;;;;;;;;;;5131724;27;20517;-71
2022/01/06 07:13:33;;;;;;;3.53;2.27;;;;;;;;;;5138348;27;20457;-71
2022/01/06 07:16:02;;;;;;;5.60;2.03;;;;;;;;;;5130212;27;20482;-71
2022/01/06 07:18:30;;;;;;;9.03;2.30;;;;;;;;;;5141098;27;20445;-71
2022/01/06 07:20:58;;;;;;;5.67;2.20;;;;;;;;;;5150930;27;20476;-71
2022/01/06 07:23:26;;;;;;;3.87;1.90;;;;;;;;;;5148830;27;20458;-71
2022/01/06 07:25:54;;;;;;;3.13;1.87;;;;;;;;;;5139836;27;20501;-71
2022/01/06 07:28:23;;;;;;;6.97;2.80;;;;;;;;;;5130561;27;20465;-71
2022/01/06 07:30:52;;;;;;;8.40;1.70;;;;;;;;;;5133391;27;20477;-71
2022/01/06 07:33:21;;;;;;;5.93;2.13;;;;;;;;;;5138480;27;20449;-71
2022/01/06 07:35:49;;;;;;;5.43;1.90;;;;;;;;;;5134081;27;20489;-72
2022/01/06 07:38:18;;;;;;;5.27;2.70;;;;;;;;;;5136326;27;20477;-72
2022/01/06 07:40:46;;;;;;;5.20;2.00;;;;;;;;;;5130984;27;20477;-71
2022/01/06 07:43:14;;;;;;;5.17;2.23;;;;;;;;;;5126708;27;20456;-72
2022/01/06 07:45:43;;;;;;;9.03;2.23;;;;;;;;;;5125463;27;20468;-73
2022/01/06 07:48:17;;;;;;;6.53;2.27;;;;;;;;;;5137953;27;20477;-73
2022/01/06 07:50:46;;;;;;;4.40;1.77;;;;;;;;;;5131161;27;20452;-73
2022/01/06 07:53:14;;;;;;;4.50;2.13;;;;;;;;;;5138087;27;20449;-73
2022/01/06 07:55:42;;;;;;;7.30;1.97;;;;;;;;;;5138699;27;20566;-73
2022/01/06 07:58:10;;;;;;;10.83;2.20;;;;;;;;;;5139064;27;20519;-73
2022/01/06 08:00:38;;;;;;;4.37;1.90;;;;;;;;;;5134271;27;20956;-73
2022/01/06 08:03:06;;;;;;;4.50;1.83;;;;;;;;;;5133399;27;20508;-73
2022/01/06 08:05:36;;;;;;;3.07;1.97;;;;;;;;;;5138001;27;20507;-73
2022/01/06 08:08:05;;;;;;;7.17;2.10;;;;;;;;;;5136580;27;20488;-73
2022/01/06 08:10:33;;;;;;;7.03;2.33;;;;;;;;;;5138242;27;20449;-72
2022/01/06 08:13:01;;;;;;;2.87;1.50;;;;;;;;;;5138234;27;20970;-73
2022/01/06 08:15:29;;;;;;;6.13;2.67;;;;;;;;;;5137002;27;20520;-73
2022/01/06 08:17:57;;;;;;;3.63;1.73;;;;;;;;;;5138635;27;20453;-73
2022/01/06 08:20:25;;;;;;;3.20;1.50;;;;;;;;;;5135617;27;20485;-74
2022/01/06 08:22:55;;;;;;;5.17;1.67;;;;;;;;;;5131217;27;20457;-73
2022/01/06 08:25:23;;;;;;;4.13;1.63;;;;;;;;;;5138538;27;21131;-73
2022/01/06 08:27:51;;;;;;;4.13;1.80;;;;;;;;;;5130273;27;20552;-74
2022/01/06 08:30:19;;;;;;;6.97;2.93;;;;;;;;;;5130418;27;20450;-73
2022/01/06 08:32:47;;;;;;;4.83;2.03;;;;;;;;;;5137192;27;20576;-73
2022/01/06 08:35:15;;;;;;;5.53;1.70;;;;;;;;;;5138123;27;20477;-73
2022/01/06 08:37:43;;;;;;;5.27;2.30;;;;;;;;;;5137557;27;20552;-73
2022/01/06 08:40:13;;;;;;;3.17;1.70;;;;;;;;;;5138163;27;20915;-74
2022/01/06 08:42:41;;;;;;;5.67;2.00;;;;;;;;;;5131194;27;20875;-74
2022/01/06 08:45:10;;;;;;;3.30;1.67;;;;;;;;;;5133542;27;20879;-73
2022/01/06 08:47:38;;;;;;;3.93;1.80;;;;;;;;;;5136388;27;20470;-73
2022/01/06 08:50:07;;;;;;;4.20;1.77;;;;;;;;;;5133968;27;20454;-74
2022/01/06 08:52:36;;;;;;;2.87;1.27;;;;;;;;;;5137350;27;20495;-73
2022/01/06 08:55:05;;;;;;;7.97;1.97;;;;;;;;;;5129835;27;20477;-73
2022/01/06 08:57:34;;;;;;;6.47;1.83;;;;;;;;;;5135815;27;20220;-65
2022/01/06 09:00:04;;;;;;;5.43;1.97;;;;;;;;;;5130313;27;20536;-73
2022/01/06 09:02:32;;;;;;;3.93;1.53;;;;;;;;;;5129626;27;20523;-73
2022/01/06 09:05:02;;;;;;;4.93;2.10;;;;;;;;;;5131400;27;20451;-71
2022/01/06 09:07:30;;;;;;;5.60;2.00;;;;;;;;;;5131550;27;20556;-73
2022/01/06 09:09:58;;;;;;;5.63;2.50;;;;;;;;;;5136616;27;20453;-73
2022/01/06 09:12:26;;;;;;;5.47;2.13;;;;;;;;;;5138188;27;20512;-73
2022/01/06 09:14:56;;;;;;;6.13;2.30;;;;;;;;;;5137672;27;20206;-73
2022/01/06 09:17:24;;;;;;;5.83;2.80;;;;;;;;;;5137388;27;20469;-72
2022/01/06 09:19:52;;;;;;;7.47;2.43;;;;;;;;;;5134735;27;20512;-72
2022/01/06 09:22:20;;;;;;;3.00;1.70;;;;;;;;;;5130331;27;20795;-73
2022/01/06 09:24:49;;;;;;;6.07;2.37;;;;;;;;;;5139979;27;20813;-72
2022/01/06 09:27:17;;;;;;;2.70;1.43;;;;;;;;;;5140407;27;20980;-73
2022/01/06 09:29:45;;;;;;;2.30;1.50;;;;;;;;;;5137253;27;20549;-72
2022/01/06 09:32:14;;;;;;;6.93;2.00;;;;;;;;;;5136143;27;20960;-73
2022/01/06 09:34:42;;;;;;;6.00;2.33;;;;;;;;;;5128775;27;20533;-73
2022/01/06 09:37:11;;;;;;;3.23;1.67;;;;;;;;;;5136307;27;20486;-73
2022/01/06 09:39:40;;;;;;;6.53;2.57;;;;;;;;;;5137049;27;20462;-73
2022/01/06 09:42:10;;;;;;;3.43;2.10;;;;;;;;;;5136446;27;20469;-72
2022/01/06 09:44:39;;;;;;;4.93;1.40;;;;;;;;;;5132883;27;20451;-73
2022/01/06 09:47:07;;;;;;;2.70;2.13;;;;;;;;;;5134541;27;20492;-73
2022/01/06 09:49:58;;;;;;;4.07;1.67;;;;;;;;;;5136265;27;20499;-72
2022/01/06 09:52:26;;;;;;;7.97;1.73;;;;;;;;;;5133450;27;20457;-73
2022/01/06 09:54:54;;;;;;;5.33;2.10;;;;;;;;;;5131373;27;20454;-72
2022/01/06 09:57:22;;;;;;;6.63;1.70;;;;;;;;;;5127964;27;20483;-73
2022/01/06 09:59:50;;;;;;;3.30;1.67;;;;;;;;;;5127675;27;20445;-71
2022/01/06 10:02:18;;;;;;;4.47;2.00;;;;;;;;;;5124071;27;20497;-73
2022/01/06 10:04:48;;;;;;;6.43;2.33;;;;;;;;;;5128469;27;20454;-73
2022/01/06 10:07:17;;;;;;;4.80;2.67;;;;;;;;;;5128178;27;20512;-73
2022/01/06 10:09:45;;;;;;;6.23;2.17;;;;;;;;;;5123930;27;20526;-73
2022/01/06 10:12:13;;;;;;;3.40;2.10;;;;;;;;;;5123153;27;20466;-73
2022/01/06 10:14:44;;;;;;;8.67;2.20;;;;;;;;;;5128453;28;20449;-73
2022/01/06 10:17:13;;;;;;;9.00;2.47;;;;;;;;;;5127322;28;20477;-73
2022/01/06 10:19:42;;;;;;;5.10;2.07;;;;;;;;;;5136286;28;20537;-73
2022/01/06 10:22:15;;;;;;;3.53;2.00;;;;;;;;;;5127248;28;20458;-73
2022/01/06 10:24:46;;;;;;;4.03;2.17;;;;;;;;;;5135678;28;20450;-73
2022/01/06 10:27:15;;;;;;;8.87;2.53;;;;;;;;;;5133732;28;20492;-72
2022/01/06 10:29:43;;;;;;;3.50;1.83;;;;;;;;;;5132390;27;20460;-74
2022/01/06 10:32:12;;;;;;;3.47;2.40;;;;;;;;;;5125149;27;21028;-72
2022/01/06 10:34:41;;;;;;;3.93;2.33;;;;;;;;;;5127179;28;20455;-73
2022/01/06 10:37:19;;;;;;;3.97;2.30;;;;;;;;;;5126024;28;20510;-73
2022/01/06 10:39:49;;;;;;;4.17;2.90;;;;;;;;;;5125442;28;20453;-73
2022/01/06 10:42:17;;;;;;;3.73;3.00;;;;;;;;;;5124284;28;20460;-73
2022/01/06 10:44:46;;;;;;;6.07;2.67;;;;;;;;;;5124641;28;20450;-72
2022/01/06 10:47:14;;;;;;;7.87;2.20;;;;;;;;;;5122970;28;20505;-73
2022/01/06 10:49:42;;;;;;;9.60;2.80;;;;;;;;;;5125362;28;21006;-73
2022/01/06 10:52:10;;;;;;;4.97;2.50;;;;;;;;;;5141224;27;20471;-73
2022/01/06 10:54:39;;;;;;;5.13;2.23;;;;;;;;;;5144335;27;20503;-73
2022/01/06 10:57:11;;;;;;;3.87;2.30;;;;;;;;;;5141883;27;20845;-72
2022/01/06 10:59:39;;;;;;;6.80;2.40;;;;;;;;;;5133892;28;20540;-73
2022/01/06 11:02:08;;;;;;;4.70;2.87;;;;;;;;;;5142698;27;20460;-74
2022/01/06 11:04:36;;;;;;;5.97;2.00;;;;;;;;;;5145102;27;20984;-71
2022/01/06 11:07:05;;;;;;;5.43;2.23;;;;;;;;;;5143095;27;20543;-69
2022/01/06 11:09:33;;;;;;;4.77;2.17;;;;;;;;;;5138159;27;20453;-70
2022/01/06 11:14:48;;;;;;;4.07;2.53;;;;;;;;;;5129782;28;20466;-71
2022/01/06 11:17:21;;;;;;;3.33;1.90;;;;;;;;;;5135032;28;20488;-70
2022/01/06 11:19:49;;;;;;;6.90;2.07;;;;;;;;;;5126690;28;20525;-73
2022/01/06 11:22:23;;;;;;;8.43;2.50;;;;;;;;;;5135368;28;20460;-70
2022/01/06 11:24:54;;;;;;;7.27;2.63;;;;;;;;;;5136151;28;20792;-72
2022/01/06 11:27:33;;;;;;;3.37;1.90;;;;;;;;;;5141241;27;20979;-72
2022/01/06 11:30:13;;;;;;;2.53;1.87;;;;;;;;;;5148009;27;20191;-69
2022/01/06 11:32:42;;;;;;;5.57;2.23;;;;;;;;;;5144714;27;20452;-70
2022/01/06 11:35:12;;;;;;;5.37;1.87;;;;;;;;;;5139585;27;20498;-65
2022/01/06 11:37:41;;;;;;;6.33;2.80;;;;;;;;;;5133666;27;20485;-65
2022/01/06 11:40:10;;;;;;;3.67;2.10;;;;;;;;;;5138958;27;20193;-70
2022/01/06 11:42:38;;;;;;;5.37;2.10;;;;;;;;;;5139206;27;20681;-70
2022/01/06 11:45:19;;;;;;;5.07;2.10;;;;;;;;;;5133475;27;20458;-70
2022/01/06 11:47:47;;;;;;;3.53;1.93;;;;;;;;;;5126210;27;20643;-70
2022/01/06 11:50:18;;;;;;;3.93;1.73;;;;;;;;;;5135178;27;20978;-70
2022/01/06 11:52:50;;;;;;;6.43;2.60;;;;;;;;;;5139039;27;20537;-70
2022/01/06 11:55:19;;;;;;;5.90;1.90;;;;;;;;;;5130670;27;20197;-70
2022/01/06 11:57:47;;;;;;;7.10;1.87;;;;;;;;;;5139130;27;20578;-70
2022/01/06 12:00:18;;;;;;;3.83;2.27;;;;;;;;;;5138780;27;20445;-69
2022/01/06 12:02:56;;;;;;;5.77;2.17;;;;;;;;;;5139040;27;20464;-69
2022/01/06 12:05:24;;;;;;;6.40;1.97;;;;;;;;;;5138149;27;20659;-63
2022/01/06 12:07:52;;;;;;;2.43;1.73;;;;;;;;;;5129331;27;20470;-63
2022/01/06 12:10:21;;;;;;;6.10;3.20;;;;;;;;;;5134876;27;20199;-70
2022/01/06 12:12:49;;;;;;;1.50;1.40;;;;;;;;;;5143740;27;20480;-70
2022/01/06 12:15:20;;;;;;;2.80;1.83;;;;;;;;;;5144723;27;20460;-70
2022/01/06 12:17:51;;;;;;;2.00;1.40;;;;;;;;;;5145619;27;20657;-71
2022/01/06 12:20:20;;;;;;;3.73;1.73;;;;;;;;;;5141132;27;20502;-71
2022/01/06 12:22:49;;;;;;;3.53;1.67;;;;;;;;;;5139802;27;20450;-71
2022/01/06 12:25:17;;;;;;;4.73;1.57;;;;;;;;;;5144991;27;20453;-70
2022/01/06 12:27:48;;;;;;;3.47;1.77;;;;;;;;;;5142960;27;20532;-71
2022/01/06 12:30:17;;;;;;;3.47;1.77;;;;;;;;;;5138596;27;20510;-70
2022/01/06 12:32:57;;;;;;;2.97;1.77;;;;;;;;;;5135455;27;20505;-71
2022/01/06 12:35:45;;;;;;;2.30;1.30;;;;;;;;;;5134190;27;20817;-71
2022/01/06 12:38:14;;;;;;;4.53;1.70;;;;;;;;;;5126028;27;20477;-71
2022/01/06 12:40:43;;;;;;;4.30;1.77;;;;;;;;;;5129528;27;20454;-71
2022/01/06 12:43:32;;;;;;;5.63;1.73;;;;;;;;;;5138147;27;20456;-71
2022/01/06 12:46:02;;;;;;;6.40;2.00;;;;;;;;;;5132456;27;20470;-71
2022/01/06 12:48:33;;;;;;;2.23;1.70;;;;;;;;;;5137554;27;20469;-71
2022/01/06 12:51:01;;;;;;;2.03;1.90;;;;;;;;;;5135999;27;20456;-71
2022/01/06 12:53:30;;;;;;;5.87;1.90;;;;;;;;;;5134933;27;20486;-71
2022/01/06 12:55:59;;;;;;;6.67;2.27;;;;;;;;;;5140727;27;20465;-71
2022/01/06 12:58:29;;;;;;;5.70;1.77;;;;;;;;;;5138227;27;20502;-71
2022/01/06 13:00:59;;;;;;;3.33;1.60;;;;;;;;;;5146284;27;20811;-71
2022/01/06 13:03:28;;;;;;;2.70;1.40;;;;;;;;;;5130907;27;20453;-71
2022/01/06 13:05:58;;;;;;;4.40;2.10;;;;;;;;;;5126767;27;20501;-71
2022/01/06 13:08:26;;;;;;;5.40;1.70;;;;;;;;;;5134613;27;20461;-69
2022/01/06 13:11:02;;;;;;;3.03;1.60;;;;;;;;;;5145297;27;20449;-69
2022/01/06 13:13:29;;;;;;;4.63;1.80;;;;;;;;;;5145946;27;20455;-69
2022/01/06 13:15:58;;;;;;;2.97;1.90;;;;;;;;;;5137045;27;20475;-69
2022/01/06 13:18:26;;;;;;;7.67;2.33;;;;;;;;;;5124665;27;20488;-70
2022/01/06 13:21:00;;;;;;;1.97;1.40;;;;;;;;;;5128990;27;20447;-69
2022/01/06 13:23:43;;;;;;;7.83;1.43;;;;;;;;;;5129663;27;20536;-70
2022/01/06 13:26:11;;;;;;;4.17;2.07;;;;;;;;;;5129730;27;20470;-69
2022/01/06 13:28:42;;;;;;;4.43;1.60;;;;;;;;;;5129174;27;20449;-69
2022/01/06 13:31:17;;;;;;;3.13;1.60;;;;;;;;;;5127215;27;20460;-70
2022/01/06 13:33:53;;;;;;;3.83;2.03;;;;;;;;;;5125022;27;20449;-69
2022/01/06 13:36:29;;;;;;;2.10;1.90;;;;;;;;;;5125814;27;20473;-69
2022/01/06 13:39:05;;;;;;;4.47;1.60;;;;;;;;;;5127037;27;20510;-71
2022/01/06 13:41:34;;;;;;;3.30;1.30;;;;;;;;;;5127946;27;20456;-70
2022/01/06 13:44:06;;;;;;;6.03;1.57;;;;;;;;;;5125535;27;20455;-70
2022/01/06 13:46:50;;;;;;;3.27;2.17;;;;;;;;;;5141713;27;20564;-70
2022/01/06 13:52:15;;;;;;;2.70;1.57;;;;;;;;;;5139543;27;20794;-68
2022/01/06 13:54:43;;;;;;;3.50;1.40;;;;;;;;;;5135536;27;21054;-69
2022/01/06 13:57:12;;;;;;;3.07;1.60;;;;;;;;;;5142035;27;20473;-71
2022/01/06 13:59:41;;;;;;;5.23;2.17;;;;;;;;;;5140505;27;20882;-70
2022/01/06 14:02:11;;;;;;;5.23;1.43;;;;;;;;;;5143115;27;20510;-69
2022/01/06 14:04:40;;;;;;;4.97;2.17;;;;;;;;;;5142706;27;20871;-70
2022/01/06 14:07:10;;;;;;;2.70;1.57;;;;;;;;;;5139692;27;20913;-70
2022/01/06 14:09:42;;;;;;;4.73;1.87;;;;;;;;;;5136256;27;20454;-70
2022/01/06 14:12:10;;;;;;;2.40;1.70;;;;;;;;;;5134012;27;20464;-71
2022/01/06 14:14:39;;;;;;;2.10;1.90;;;;;;;;;;5135967;28;20536;-70
2022/01/06 14:17:08;;;;;;;2.30;1.60;;;;;;;;;;5132003;28;20542;-70
2022/01/06 14:19:38;;;;;;;3.63;1.53;;;;;;;;;;5131874;28;20485;-70
2022/01/06 14:22:07;;;;;;;2.27;1.60;;;;;;;;;;5123912;28;20245;-70
2022/01/06 14:24:36;;;;;;;2.57;1.33;;;;;;;;;;5136646;28;20210;-70
2022/01/06 14:27:05;;;;;;;7.23;1.83;;;;;;;;;;5119911;28;20217;-70
2022/01/06 14:29:33;;;;;;;2.47;1.30;;;;;;;;;;5135036;28;20246;-71
2022/01/06 14:32:01;;;;;;;3.10;1.80;;;;;;;;;;5137085;27;20208;-70
2022/01/06 14:34:29;;;;;;;4.20;1.73;;;;;;;;;;5128034;28;20647;-70
2022/01/06 14:36:57;;;;;;;3.03;1.83;;;;;;;;;;5135726;28;20668;-70
2022/01/06 14:39:26;;;;;;;5.87;1.80;;;;;;;;;;5141819;27;20220;-70
2022/01/06 14:41:55;;;;;;;5.77;2.10;;;;;;;;;;5135565;28;20283;-71
2022/01/06 14:44:23;;;;;;;2.40;1.37;;;;;;;;;;5136599;28;20225;-70
2022/01/06 14:46:51;;;;;;;1.47;1.33;;;;;;;;;;5135402;27;20504;-70
2022/01/06 14:49:22;;;;;;;3.67;1.43;;;;;;;;;;5136579;27;20224;-70
2022/01/06 14:51:55;;;;;;;4.13;1.83;;;;;;;;;;5137607;27;20199;-70
2022/01/06 14:54:24;;;;;;;2.70;1.80;;;;;;;;;;5129111;28;20196;-70
2022/01/06 14:56:52;;;;;;;1.87;1.57;;;;;;;;;;5131592;27;20307;-71
2022/01/06 14:59:23;;;;;;;3.20;1.47;;;;;;;;;;5140119;27;20232;-70
2022/01/06 15:01:53;;;;;;;2.97;2.50;;;;;;;;;;5141934;27;20206;-70
2022/01/06 15:04:21;;;;;;;3.07;1.50;;;;;;;;;;5132298;27;20200;-70
2022/01/06 15:06:49;;;;;;;6.90;2.27;;;;;;;;;;5125046;27;20225;-70